AREA preflight bulletin
Updated "live" 15 Dec 2019, 10:29

back to the map




METAR og TAF


NUUK
  AKTUEL BGGH 151020Z AUTO 06016KT 9999NDV FEW040/// FEW200/// M09/M15 Q1015=
  TAF 9 timer BGGH 141711Z 1418/1423 35012KT 9999 SCT020 BKN060 TEMPO 1418/1423 4000 -SHSN BKN010 SCT025TCU=

KANGERLUSSUAQ
  AKTUEL BGSF 151020Z AUTO 06009KT 9999NDV OVC050/// M12/M16 Q1019=
  TAF 24 timer BGSF 141649Z 1418/1503 05008KT 9999 BKN045 TEMPO 1418/1503 BKN035=

KULUSUK
  AKTUEL BGKK 151020Z AUTO VRB03KT 9999NDV FEW080/// BKN100/// M05/M14 Q1006=
  TAF 9 timer BGKK 141409Z 1415/1420 VRB06KT 9999 FEW200=

NERLERIT INAAT
  AKTUEL

KEFLAVIK
  AKTUEL BIKF 151000Z 36010KT 9999 SCT028 M02/M04 Q0993=
  TAF 24 timer BIKF 150800Z 1509/1609 03013KT 9999 SCT023 BKN038 TX02/1609Z TNM02/1509Z=

REYKJAVIK
  AKTUEL BIRK 151000Z VRB02KT 9999 FEW024 SCT039 BKN094 M05/M08 Q0993 R01/790142=
  TAF 24 timer BIRK 150800Z 1509/1609 09004KT 9999 FEW030 SCT043 TX00/1609Z TNM04/1509Z BECMG 1515/1517 02012KT=

AKUREYRI
  SPECI(AL) BIAR 151022Z 00000KT 7000 -SN SCT014 BKN017 OVC023 M05/M06 Q0994=
  AKTUEL BIAR 151000Z VRB01KT 9999 FEW019 BKN029 OVC043 M05/M06 Q0994 R01/791095 RMK RWY SANDED=
  TAF 24 timer BIAR 150800Z 1509/1609 34005KT 9999 FEW017 SCT023 BKN038 TX01/1605Z TNM06/1509Z PROB30 TEMPO 1509/1520 3000 SHSN BKN010 BECMG 1519/1521 1500 SN VV006 TEMPO 1601/1607 2500 RASN OVC008=


SIGMETS:

SONDRESTROM FIR
  SIGMET BGGL SIGMET 3 VALID 150930/151330 BGSF- BGGL NUUK FIR SEV TURB FCST AT 0930Z WI N6745 W03120 - N7353 W02015 - N7001 W02111 - N6831 W02601 - N6745 W03120 SFC/FL130 STNR NC=

SNOWTAM:

ICAO
BGSF (KANGERLUSSUAQ)

valid from:
1912142220

Notam_id:
0171

SNOWTAM 0171 A) BGSF B) 12142220 C) 09 F) 487/487/487 G) 12/12/12 H) 5/5/5 N) A/3487/GOOD B C D/487/GOOD R) N/3487/GOOD E W/487/GOOD HELIAPRON/3487/POOR T) MEASURED FRICTION COEFFICIENTS 71/86/87 TAP, RWY CONTAMINATION 10 PERCENT OF 2MM DRY SNOW, 25 PERCENT 5MM COMPACTED OR ROLLED SNOW AND 10 PERCENT OF 5MM ICE


ICAO
BIKF (KEFLAVIK)

valid from:
1912150422

Notam_id:
2174

SNOWTAM 2174 A) BIKF B) 12150422 C) 01 F) 1/1/1 G) XX/XX/XX H) 5/5/5 N) 3 B) 12150423 C) 10 F) 1/1/1 G) XX/XX/XX H) 5/5/5 N) 3 R) 3 T) RWY 01 CONTAMINATION 100 PERCENT CHEMICAL WET, RWY 10 CONTAMINATION 100 PERCENT CHEMICAL WET, TWY B/A MEDIUM SANDED TERMINAL B/A MEDIUM SANDED EAST APRON B/A MEDIUM/POOR SANDED


ICAO
BIRK (REYKJAVIK)

valid from:
1912150600

Notam_id:
2176

SNOWTAM 2176 A) BIRK B) 12150600 C) 01 F) 7/7/7 G) 01/01/01 H) 5/5/5 B) 12150600 C) 13 F) 7/7/7 G) 01/01/01 H) 5/5/5 S) 12151400 T) RWY 01 CONTAMINATION 100 PERCENT AND SANDED, RWY 13 CONTAMINATION 100 PERCENT AND SANDED TWY AND APRON B/A MEDIUM GOOD


ICAO
BIAR (AKUREYRI)

valid from:
1912150600

Notam_id:
2175

SNOWTAM 2175 A) BIAR B) 12150600 C) 01 F) 7/7/7 G) 02/02/02 H) 5/5/5 S) 12151400 T) RWY 01 SANDED



NOTAM/SNOWTAM for operationel use has to be confirmed with the
nearest AIS Briefing Office prior to a flight.

ICAO
BGGH (NUUK)

FIR
BGGL

Notam_id:
BGB0814/19

valid from:
1912141502

E) BGGH AFIS FREQ 119.100 MHZ RADIOCOVERAGE LIMITED TO LINE OF SIGHT WITH AERODROME. RECIEVER/TRANSMITTER AT LILLE MALENE OUT OF SERVICE

valid to:
1912161911EST




ICAO
BGGH (NUUK)

FIR
BGGL

Notam_id:
BGB0799/19

valid from:
1912091203

E) LIGHTING ON RWY DESIGNATION SIGNS U/S.

valid to:
1912231200EST


Replacing:
BGB0782/19

ICAO
BGKK (KULUSUK)

FIR
BGGL

Notam_id:
BGB0775/19

valid from:
1911291226

E) AERODROME BEACON OUT OF SERVICE.

valid to:
1912222000EST


Replacing:
BGB0759/19

ICAO
BGCO (NERLERIT INAAT)

FIR
BGGL

Notam_id:
BGB0734/19

valid from:
1911151206

E) SEA RESCUE NOT AVAILABLE DUE TO ICE.

valid to:
2007011000




ICAO
BGCO (NERLERIT INAAT)

FIR
BGGL

Notam_id:
BGB0765/19

valid from:
2007010900

E) AD OPERATIONAL HOURS ON WEDNESDAYS EXTENDED TO 0900-1700 UTC.

valid to:
2009161700




ICAO
BGGL (SONDRESTROM FIR)

FIR
BGGL

Notam_id:
BGA0483/19

valid from:
1909271038

E) NUUK INFORMATION FREQ 5526 KHZ PSN 6334N03707W KULUSUK U/S.

valid to:
2004011800




ICAO
BGGL (SONDRESTROM FIR)

FIR
BGGL

Notam_id:
BGA0594/19

valid from:
1912010551

E) CHECKLIST YEAR=2018 0199 YEAR=2019 0483 0519 0527 0556 0566 0569 0570 0584 LATEST PUBLICATIONS AIP AIRAC AMDT IFR 008/2019 EFFECTIVE DATE 05 DEC 19 AIP AMDT IFR 003/2018 EFFECTIVE DATE 15 MAR 18 AIP SUP IFR 002/2019 EFFECTIVE DATE 08 NOV 19 AIC IFR A001/2019 EFFECTIVE DATE 17 JAN 19 AIC CHECKLIST AIP IFR A001/2016 A002/2016 A001/2017 A002/2017 A002/2018 A003/2018 A004/2018 A001/2019 AIP VFR NIL AIP MIL NIL SUP CHECKLIST AIP IFR 002/2019 AIP VFR NIL AIP MIL NIL

valid to:
2001010551EST


Replacing:
BGA0530/19

ICAO
BGGL (SONDRESTROM FIR)

FIR
BGGL

Notam_id:
BGB0781/19

valid from:
1912010552

E) CHECKLIST YEAR=2019 0145 0606 0655 0663 0677 0696 0734 0764 0765 0767 0775 0776 0779 0780 LATEST PUBLICATIONS AIP AIRAC AMDT IFR 008/2019 EFFECTIVE DATE 05 DEC 19 AIP AMDT IFR 003/2018 EFFECTIVE DATE 15 MAR 18 AIP SUP IFR 002/2019 EFFECTIVE DATE 08 NOV 19 AIC IFR A001/2019 EFFECTIVE DATE 17 JAN 19 AIC CHECKLIST AIP IFR A001/2016 A002/2016 A001/2017 A002/2017 A002/2018 A003/2018 A004/2018 A001/2019 AIP VFR NIL AIP MIL NIL SUP CHECKLIST AIP IFR 002/2019 AIP VFR NIL AIP MIL NIL

valid to:
2001010552EST


Replacing:
BGB0698/19

ICAO
BGGL (SONDRESTROM FIR)

FIR
BGGL

Notam_id:
BGC0127/19

valid from:
1912010552

E) CHECKLIST YEAR=2019 0067 0068 0070 0073 0096 0105 0106 0121 0125 LATEST PUBLICATIONS AIP AIRAC AMDT IFR 008/2019 EFFECTIVE DATE 05 DEC 19 AIP AMDT IFR 003/2018 EFFECTIVE DATE 15 MAR 18 AIP SUP IFR 002/2019 EFFECTIVE DATE 08 NOV 19 AIC IFR A001/2019 EFFECTIVE DATE 17 JAN 19 AIC CHECKLIST AIP IFR A001/2016 A002/2016 A001/2017 A002/2017 A002/2018 A003/2018 A004/2018 A001/2019 AIP VFR NIL AIP MIL NIL SUP CHECKLIST AIP IFR 002/2019 AIP VFR NIL AIP MIL NIL

valid to:
2001010552EST


Replacing:
BGC0117/19

ICAO
BGGL (SONDRESTROM FIR)

FIR
BGGL

Notam_id:
BGA0600/19

valid from:
1912170903

D) DAILY 0903-1020


E) DANGER AREA ACTIVATED TEMPORARY DANGER AREA ESTABLISHED IN BGGL FIR PART OF THE BELOW MENTIONED AREA. SOYUZ ROCKET LAUNCH VS23 FROM FRENCH GUYANA SPACE CENTER. DEBRIS IMPACTED AREA BOUNDED BY: 7035N06346W 7040N06203W 6911N06134W 6907N06310W F) SFC G) FL195

valid to:
1912241020




ICAO
BGGL (SONDRESTROM FIR)

FIR
BGGL

Notam_id:
BGA0519/19

valid from:
1912050000

E) TRIGGER NOTAM - PERM AIP AIRAC AMDT 08/19 WEF 05 DEC 2019. LIST OF AIRAC EFFECTIVE DATES UPDATED.

valid to:
1912182359




ICAO
BGGL (SONDRESTROM FIR)

FIR
BGGL

Notam_id:
BGA0199/18

valid from:
1805310935

E) GREENLAND AND ADJACENT WATERS ARE CONSIDERED HOSTILE AREAS BY THE CIVIL AVIATION AUTHORITY (TBST). THREE MAJOR REASONS CONTRIBUTE TO DEFINING THE AREA AS HOSTILE: A SAFE FORCED LANDING CANNOT BE ACCOMPLISHED BECAUSE THE SURFACE IS INADEQUATE. THE HELICOPTER OCCUPANTS CANNOT BE ADEQUATELY PROTECTED FROM THE ELEMENTS. SEARCH AND RESCUE RESPONSE/CAPABILITY ARE NOT PROVIDED CONSISTENT WITH ANTICIPATED EXPOSURE.

valid to:
PERM




ICAO
BGGL (SONDRESTROM FIR)

FIR
BGGL

Notam_id:
BGA0601/19

valid from:
2001300000

E) AIP GREENLAND AIRAC AMDT EFFECTIVE DATE 30 JAN 2020: NIL.

valid to:
2002122359




ICAO
BGGL (SONDRESTROM FIR)

FIR
BGGL

Notam_id:
BGA0584/19

valid from:
2001020000

E) AIP GREENLAND AIRAC AMDT EFFECTIVE DATE 02 JAN 2020: NIL.

valid to:
2001152359




ICAO
BIKF (KEFLAVIK)

FIR
BIRD

Notam_id:
BIA0551/19

valid from:
1911132343

E) THE USE OF 3 NM ATS SURVEILLANCE SEPARATION IN FAXI TMA IS SUSPENDED UFN, REF AIP ENR 1.6.1.2. F) SFC G) FL245

valid to:
1912312359




ICAO
BIKF (KEFLAVIK)

FIR
BIRD

Notam_id:
BIA0554/19

valid from:
1911141535

E) ELECTRONIC TERRAIN AND OBSTACLE CHART FOR BIKF IS TEMPORARILY UNAVAILABLE. REF: AIP GEN 3.2.4 .

valid to:
2001302359




ICAO
BIKF (KEFLAVIK)

FIR
BIRD

Notam_id:
BIA0596/19

valid from:
1912121232

E) TWY S-3 CLOSED DUE TO WIP. REF: BIKF AD 2.8.2. BIKF AD 2.24.1.2-1 AND SUP 009/2019

valid to:
2003052359


Replacing:
BIA0584/19

ICAO
BIRK (REYKJAVIK)

FIR
BIRD

Notam_id:
BIA0523/19

valid from:
1910301808

E) GF LOCATOR 319 KHZ UNSERVICEABLE DUE TO MAINTENANCE REF: AIP BIRK AD 2.19

valid to:
1912312359




ICAO
BIRK (REYKJAVIK)

FIR
BIRD

Notam_id:
BIA0563/19

valid from:
1911200936

E) REF BIRK AD 2.24.10.5-7 EFF 23 JUN 2017 BIRK RNAV(GNSS) RWY 31. DUE TO VEGETATION PENETRATING THE VSS AND OCS SURFACES ONLY CIRCLING MINIMA APPLICABLE.

valid to:
2001292359


Replacing:
BIA0440/19

ICAO
BIRK (REYKJAVIK)

FIR
BIRD

Notam_id:
BIA0550/19

valid from:
1911132320

E) THE USE OF 3 NM ATS SURVEILLANCE SEPARATION IN FAXI TMA IS SUSPENDED UFN, REF AIP ENR 1.6.1.2. F) SFC G) FL245

valid to:
1912312359




ICAO
BIRK (REYKJAVIK)

FIR
BIRD

Notam_id:
BIA0502/19

valid from:
1910161034

E) RWY 19 5 LDIN FLASHING LIGHTS DISTANCE FROM THR 19: 734M, 1279M, 1659M, 2110M AND 2753 M UNSERVICEABLE

valid to:
2001161000




ICAO
BIAR (AKUREYRI)

FIR
BIRD

Notam_id:
BIA0454/19

valid from:
1909301533

E) MAST ERECTED ON STRIP, 260M SOUTH OF THRESHOLD RWY 19 AND 120M WEST OF EXTENDED CENTRELINE RWY 19. ELEVATION 56.69FT. MAST IS LIT WITH OBS LGT. POSITION 653953.62N 0180434.18W

valid to:
1912302300




ICAO
BIAR (AKUREYRI)

FIR
BIRD

Notam_id:
BIA0553/19

valid from:
1911141523

E) FREQUENCY 118.7 IS INOP. REF: AIP ICELAND BIAR AD 2.18.

valid to:
2001302359


Replacing:
BIA0361/19


Copyright Naviair   2003-2016